sensor_id;sensor_type;location;lat;lon;timestamp;P1;durP1;ratioP1;P2;durP2;ratioP2
56319;SDS011;42226;42.382;23.748;2024-01-25T00:02:14;4.25;;;4.05;;
56319;SDS011;42226;42.382;23.748;2024-01-25T00:04:40;4.30;;;4.10;;
56319;SDS011;42226;42.382;23.748;2024-01-25T00:07:08;4.10;;;3.90;;
56319;SDS011;42226;42.382;23.748;2024-01-25T00:09:35;4.50;;;4.30;;
56319;SDS011;42226;42.382;23.748;2024-01-25T00:12:03;4.20;;;4.00;;
56319;SDS011;42226;42.382;23.748;2024-01-25T00:14:31;4.32;;;4.13;;
56319;SDS011;42226;42.382;23.748;2024-01-25T00:16:59;4.40;;;4.20;;
56319;SDS011;42226;42.382;23.748;2024-01-25T00:19:27;4.63;;;4.40;;
56319;SDS011;42226;42.382;23.748;2024-01-25T00:21:54;4.28;;;4.07;;
56319;SDS011;42226;42.382;23.748;2024-01-25T00:24:22;4.57;;;4.38;;
56319;SDS011;42226;42.382;23.748;2024-01-25T00:26:49;4.57;;;4.28;;
56319;SDS011;42226;42.382;23.748;2024-01-25T00:29:17;4.60;;;4.40;;
56319;SDS011;42226;42.382;23.748;2024-01-25T00:31:43;4.68;;;4.38;;
56319;SDS011;42226;42.382;23.748;2024-01-25T00:34:11;4.80;;;4.50;;
56319;SDS011;42226;42.382;23.748;2024-01-25T00:36:38;5.03;;;4.63;;
56319;SDS011;42226;42.382;23.748;2024-01-25T00:39:06;4.47;;;4.18;;
56319;SDS011;42226;42.382;23.748;2024-01-25T00:41:34;5.93;;;5.53;;
56319;SDS011;42226;42.382;23.748;2024-01-25T00:44:03;5.80;;;5.40;;
56319;SDS011;42226;42.382;23.748;2024-01-25T00:46:32;5.70;;;5.30;;
56319;SDS011;42226;42.382;23.748;2024-01-25T00:48:59;5.75;;;5.25;;
56319;SDS011;42226;42.382;23.748;2024-01-25T00:51:27;5.60;;;5.10;;
56319;SDS011;42226;42.382;23.748;2024-01-25T00:53:54;5.32;;;4.93;;
56319;SDS011;42226;42.382;23.748;2024-01-25T00:56:22;4.22;;;4.03;;
56319;SDS011;42226;42.382;23.748;2024-01-25T00:58:49;4.78;;;4.47;;
56319;SDS011;42226;42.382;23.748;2024-01-25T01:01:18;4.82;;;4.53;;
56319;SDS011;42226;42.382;23.748;2024-01-25T01:03:48;5.05;;;4.75;;
56319;SDS011;42226;42.382;23.748;2024-01-25T01:06:20;5.30;;;4.90;;
56319;SDS011;42226;42.382;23.748;2024-01-25T01:08:48;5.90;;;5.50;;
56319;SDS011;42226;42.382;23.748;2024-01-25T01:11:16;5.30;;;5.00;;
56319;SDS011;42226;42.382;23.748;2024-01-25T01:13:44;5.45;;;5.05;;
56319;SDS011;42226;42.382;23.748;2024-01-25T01:16:12;5.65;;;5.35;;
56319;SDS011;42226;42.382;23.748;2024-01-25T01:18:40;5.60;;;5.30;;
56319;SDS011;42226;42.382;23.748;2024-01-25T01:21:08;5.32;;;5.03;;
56319;SDS011;42226;42.382;23.748;2024-01-25T01:23:35;5.35;;;5.00;;
56319;SDS011;42226;42.382;23.748;2024-01-25T01:26:03;4.93;;;4.53;;
56319;SDS011;42226;42.382;23.748;2024-01-25T01:28:32;5.43;;;5.03;;
56319;SDS011;42226;42.382;23.748;2024-01-25T01:30:59;4.80;;;4.50;;
56319;SDS011;42226;42.382;23.748;2024-01-25T01:33:28;5.00;;;4.70;;
56319;SDS011;42226;42.382;23.748;2024-01-25T01:35:55;4.80;;;4.50;;
56319;SDS011;42226;42.382;23.748;2024-01-25T01:38:22;4.72;;;4.43;;
56319;SDS011;42226;42.382;23.748;2024-01-25T01:40:49;4.80;;;4.50;;
56319;SDS011;42226;42.382;23.748;2024-01-25T01:43:20;4.47;;;4.28;;
56319;SDS011;42226;42.382;23.748;2024-01-25T01:45:48;4.40;;;4.20;;
56319;SDS011;42226;42.382;23.748;2024-01-25T01:48:16;4.55;;;4.35;;
56319;SDS011;42226;42.382;23.748;2024-01-25T01:50:44;4.50;;;4.30;;
56319;SDS011;42226;42.382;23.748;2024-01-25T01:53:12;4.15;;;3.95;;
56319;SDS011;42226;42.382;23.748;2024-01-25T01:55:40;4.60;;;4.40;;
56319;SDS011;42226;42.382;23.748;2024-01-25T01:58:07;4.80;;;4.50;;
56319;SDS011;42226;42.382;23.748;2024-01-25T02:00:36;4.38;;;4.18;;
56319;SDS011;42226;42.382;23.748;2024-01-25T02:03:04;4.68;;;4.38;;
56319;SDS011;42226;42.382;23.748;2024-01-25T02:05:34;4.30;;;4.10;;
56319;SDS011;42226;42.382;23.748;2024-01-25T02:08:01;4.70;;;4.40;;
56319;SDS011;42226;42.382;23.748;2024-01-25T02:10:30;4.43;;;4.22;;
56319;SDS011;42226;42.382;23.748;2024-01-25T02:16:38;4.15;;;3.95;;
56319;SDS011;42226;42.382;23.748;2024-01-25T02:19:06;4.30;;;4.10;;
56319;SDS011;42226;42.382;23.748;2024-01-25T02:21:34;4.68;;;4.43;;
56319;SDS011;42226;42.382;23.748;2024-01-25T02:24:00;4.22;;;4.03;;
56319;SDS011;42226;42.382;23.748;2024-01-25T02:26:28;4.68;;;4.38;;
56319;SDS011;42226;42.382;23.748;2024-01-25T02:28:55;4.53;;;4.32;;
56319;SDS011;42226;42.382;23.748;2024-01-25T02:31:22;4.32;;;4.10;;
56319;SDS011;42226;42.382;23.748;2024-01-25T02:33:50;3.65;;;3.55;;
56319;SDS011;42226;42.382;23.748;2024-01-25T02:36:17;4.47;;;4.28;;
56319;SDS011;42226;42.382;23.748;2024-01-25T02:38:48;4.38;;;4.07;;
56319;SDS011;42226;42.382;23.748;2024-01-25T02:41:15;4.28;;;4.07;;
56319;SDS011;42226;42.382;23.748;2024-01-25T02:43:43;4.43;;;4.13;;
56319;SDS011;42226;42.382;23.748;2024-01-25T02:46:10;4.40;;;4.07;;
56319;SDS011;42226;42.382;23.748;2024-01-25T02:48:39;4.38;;;4.18;;
56319;SDS011;42226;42.382;23.748;2024-01-25T02:51:05;4.30;;;4.10;;
56319;SDS011;42226;42.382;23.748;2024-01-25T02:53:33;4.43;;;4.15;;
56319;SDS011;42226;42.382;23.748;2024-01-25T02:56:00;4.38;;;4.18;;
56319;SDS011;42226;42.382;23.748;2024-01-25T02:58:27;4.53;;;4.32;;
56319;SDS011;42226;42.382;23.748;2024-01-25T03:00:54;4.13;;;3.92;;
56319;SDS011;42226;42.382;23.748;2024-01-25T03:03:21;3.92;;;3.72;;
56319;SDS011;42226;42.382;23.748;2024-01-25T03:06:02;4.15;;;3.85;;
56319;SDS011;42226;42.382;23.748;2024-01-25T03:08:30;4.70;;;4.30;;
56319;SDS011;42226;42.382;23.748;2024-01-25T03:10:58;4.28;;;4.07;;
56319;SDS011;42226;42.382;23.748;2024-01-25T03:13:25;4.50;;;4.30;;
56319;SDS011;42226;42.382;23.748;2024-01-25T03:15:53;4.72;;;4.50;;
56319;SDS011;42226;42.382;23.748;2024-01-25T03:18:20;4.40;;;4.20;;
56319;SDS011;42226;42.382;23.748;2024-01-25T03:20:48;4.57;;;4.38;;
56319;SDS011;42226;42.382;23.748;2024-01-25T03:23:16;4.43;;;4.22;;
56319;SDS011;42226;42.382;23.748;2024-01-25T03:25:45;4.55;;;4.35;;
56319;SDS011;42226;42.382;23.748;2024-01-25T03:28:12;4.38;;;4.18;;
56319;SDS011;42226;42.382;23.748;2024-01-25T03:30:41;4.38;;;4.18;;
56319;SDS011;42226;42.382;23.748;2024-01-25T03:33:08;4.30;;;4.10;;
56319;SDS011;42226;42.382;23.748;2024-01-25T03:35:35;4.28;;;4.07;;
56319;SDS011;42226;42.382;23.748;2024-01-25T03:38:03;4.50;;;4.20;;
56319;SDS011;42226;42.382;23.748;2024-01-25T03:40:31;4.07;;;3.88;;
56319;SDS011;42226;42.382;23.748;2024-01-25T03:42:58;4.18;;;3.97;;
56319;SDS011;42226;42.382;23.748;2024-01-25T03:45:25;3.88;;;3.67;;
56319;SDS011;42226;42.382;23.748;2024-01-25T03:51:13;4.43;;;4.22;;
56319;SDS011;42226;42.382;23.748;2024-01-25T03:53:40;4.88;;;4.57;;
56319;SDS011;42226;42.382;23.748;2024-01-25T03:56:14;4.32;;;4.13;;
56319;SDS011;42226;42.382;23.748;2024-01-25T04:01:58;4.35;;;4.15;;
56319;SDS011;42226;42.382;23.748;2024-01-25T04:04:26;4.40;;;4.20;;
56319;SDS011;42226;42.382;23.748;2024-01-25T04:06:54;4.22;;;3.92;;
56319;SDS011;42226;42.382;23.748;2024-01-25T04:09:20;4.07;;;3.88;;
56319;SDS011;42226;42.382;23.748;2024-01-25T04:11:47;4.40;;;4.20;;
56319;SDS011;42226;42.382;23.748;2024-01-25T04:14:15;4.32;;;4.13;;
56319;SDS011;42226;42.382;23.748;2024-01-25T04:16:42;4.40;;;4.20;;
56319;SDS011;42226;42.382;23.748;2024-01-25T04:19:11;4.63;;;4.32;;
56319;SDS011;42226;42.382;23.748;2024-01-25T04:21:38;4.20;;;4.00;;
56319;SDS011;42226;42.382;23.748;2024-01-25T04:24:06;4.30;;;4.10;;
56319;SDS011;42226;42.382;23.748;2024-01-25T04:26:33;4.07;;;3.88;;
56319;SDS011;42226;42.382;23.748;2024-01-25T04:29:01;4.40;;;4.20;;
56319;SDS011;42226;42.382;23.748;2024-01-25T04:31:29;4.40;;;4.20;;
56319;SDS011;42226;42.382;23.748;2024-01-25T04:36:55;4.57;;;4.38;;
56319;SDS011;42226;42.382;23.748;2024-01-25T04:43:03;4.38;;;4.18;;
56319;SDS011;42226;42.382;23.748;2024-01-25T04:45:30;4.68;;;4.40;;
56319;SDS011;42226;42.382;23.748;2024-01-25T04:47:58;4.07;;;3.88;;
56319;SDS011;42226;42.382;23.748;2024-01-25T04:50:25;4.50;;;4.30;;
56319;SDS011;42226;42.382;23.748;2024-01-25T04:52:51;4.30;;;4.10;;
56319;SDS011;42226;42.382;23.748;2024-01-25T04:55:18;4.07;;;3.88;;
56319;SDS011;42226;42.382;23.748;2024-01-25T04:57:46;4.43;;;4.22;;
56319;SDS011;42226;42.382;23.748;2024-01-25T05:00:15;4.40;;;4.10;;
56319;SDS011;42226;42.382;23.748;2024-01-25T05:02:43;4.13;;;3.90;;
56319;SDS011;42226;42.382;23.748;2024-01-25T05:05:09;4.43;;;4.13;;
56319;SDS011;42226;42.382;23.748;2024-01-25T05:07:37;3.88;;;3.67;;
56319;SDS011;42226;42.382;23.748;2024-01-25T05:10:05;4.63;;;4.32;;
56319;SDS011;42226;42.382;23.748;2024-01-25T05:12:32;4.50;;;4.20;;
56319;SDS011;42226;42.382;23.748;2024-01-25T05:15:02;4.18;;;3.97;;
56319;SDS011;42226;42.382;23.748;2024-01-25T05:17:29;4.60;;;4.40;;
56319;SDS011;42226;42.382;23.748;2024-01-25T05:19:57;4.32;;;4.13;;
56319;SDS011;42226;42.382;23.748;2024-01-25T05:22:24;4.40;;;4.20;;
56319;SDS011;42226;42.382;23.748;2024-01-25T05:24:51;4.57;;;4.35;;
56319;SDS011;42226;42.382;23.748;2024-01-25T05:30:16;4.60;;;4.30;;
56319;SDS011;42226;42.382;23.748;2024-01-25T05:32:44;4.15;;;3.95;;
56319;SDS011;42226;42.382;23.748;2024-01-25T05:35:12;5.75;;;5.25;;
56319;SDS011;42226;42.382;23.748;2024-01-25T05:37:41;4.20;;;4.00;;
56319;SDS011;42226;42.382;23.748;2024-01-25T05:40:09;4.63;;;4.35;;
56319;SDS011;42226;42.382;23.748;2024-01-25T05:42:37;4.97;;;4.68;;
56319;SDS011;42226;42.382;23.748;2024-01-25T05:45:06;5.10;;;4.60;;
56319;SDS011;42226;42.382;23.748;2024-01-25T05:47:34;4.47;;;4.28;;
56319;SDS011;42226;42.382;23.748;2024-01-25T05:50:00;4.47;;;4.28;;
56319;SDS011;42226;42.382;23.748;2024-01-25T05:52:27;4.82;;;4.53;;
56319;SDS011;42226;42.382;23.748;2024-01-25T05:54:55;4.53;;;4.22;;
56319;SDS011;42226;42.382;23.748;2024-01-25T05:57:22;4.70;;;4.40;;
56319;SDS011;42226;42.382;23.748;2024-01-25T05:59:50;4.60;;;4.40;;
56319;SDS011;42226;42.382;23.748;2024-01-25T06:02:17;4.82;;;4.53;;
56319;SDS011;42226;42.382;23.748;2024-01-25T06:04:46;4.55;;;4.18;;
56319;SDS011;42226;42.382;23.748;2024-01-25T06:07:14;5.38;;;4.60;;
56319;SDS011;42226;42.382;23.748;2024-01-25T06:09:41;4.75;;;4.43;;
56319;SDS011;42226;42.382;23.748;2024-01-25T06:12:09;5.43;;;4.82;;
56319;SDS011;42226;42.382;23.748;2024-01-25T06:14:35;7.43;;;4.72;;
56319;SDS011;42226;42.382;23.748;2024-01-25T06:17:03;5.28;;;4.80;;
56319;SDS011;42226;42.382;23.748;2024-01-25T06:19:30;4.95;;;4.65;;
56319;SDS011;42226;42.382;23.748;2024-01-25T06:21:57;4.85;;;4.43;;
56319;SDS011;42226;42.382;23.748;2024-01-25T06:24:25;4.95;;;4.65;;
56319;SDS011;42226;42.382;23.748;2024-01-25T06:26:55;5.68;;;5.10;;
56319;SDS011;42226;42.382;23.748;2024-01-25T06:29:23;4.80;;;4.38;;
56319;SDS011;42226;42.382;23.748;2024-01-25T06:31:53;7.22;;;5.10;;
56319;SDS011;42226;42.382;23.748;2024-01-25T06:34:21;5.03;;;4.63;;
56319;SDS011;42226;42.382;23.748;2024-01-25T06:36:48;5.40;;;4.68;;
56319;SDS011;42226;42.382;23.748;2024-01-25T06:39:16;5.20;;;4.85;;
56319;SDS011;42226;42.382;23.748;2024-01-25T06:41:43;5.30;;;4.80;;
56319;SDS011;42226;42.382;23.748;2024-01-25T06:44:10;5.47;;;5.07;;
56319;SDS011;42226;42.382;23.748;2024-01-25T06:46:37;5.15;;;4.85;;
56319;SDS011;42226;42.382;23.748;2024-01-25T06:49:04;5.30;;;4.90;;
56319;SDS011;42226;42.382;23.748;2024-01-25T06:51:32;5.78;;;4.53;;
56319;SDS011;42226;42.382;23.748;2024-01-25T06:54:00;6.65;;;5.13;;
56319;SDS011;42226;42.382;23.748;2024-01-25T06:56:27;5.22;;;4.55;;
56319;SDS011;42226;42.382;23.748;2024-01-25T06:58:54;5.32;;;4.93;;
56319;SDS011;42226;42.382;23.748;2024-01-25T07:03:23;5.63;;;5.13;;
56319;SDS011;42226;42.382;23.748;2024-01-25T07:05:49;5.35;;;4.93;;
56319;SDS011;42226;42.382;23.748;2024-01-25T07:08:16;5.57;;;5.00;;
56319;SDS011;42226;42.382;23.748;2024-01-25T07:10:44;6.03;;;5.30;;
56319;SDS011;42226;42.382;23.748;2024-01-25T07:13:13;5.88;;;5.32;;
56319;SDS011;42226;42.382;23.748;2024-01-25T07:15:41;5.20;;;4.80;;
56319;SDS011;42226;42.382;23.748;2024-01-25T07:24:50;5.80;;;5.20;;
56319;SDS011;42226;42.382;23.748;2024-01-25T07:27:17;7.40;;;5.20;;
56319;SDS011;42226;42.382;23.748;2024-01-25T07:29:44;5.43;;;4.93;;
56319;SDS011;42226;42.382;23.748;2024-01-25T07:32:12;5.47;;;5.07;;
56319;SDS011;42226;42.382;23.748;2024-01-25T07:34:40;7.47;;;5.22;;
56319;SDS011;42226;42.382;23.748;2024-01-25T07:37:07;5.53;;;5.13;;
56319;SDS011;42226;42.382;23.748;2024-01-25T07:39:37;6.15;;;5.10;;
56319;SDS011;42226;42.382;23.748;2024-01-25T07:42:05;5.60;;;5.10;;
56319;SDS011;42226;42.382;23.748;2024-01-25T07:44:31;5.50;;;5.10;;
56319;SDS011;42226;42.382;23.748;2024-01-25T07:46:59;5.35;;;5.03;;
56319;SDS011;42226;42.382;23.748;2024-01-25T07:49:27;5.20;;;4.90;;
56319;SDS011;42226;42.382;23.748;2024-01-25T07:51:55;5.38;;;4.97;;
56319;SDS011;42226;42.382;23.748;2024-01-25T07:54:22;5.30;;;4.90;;
56319;SDS011;42226;42.382;23.748;2024-01-25T07:56:50;5.10;;;4.70;;
56319;SDS011;42226;42.382;23.748;2024-01-25T07:59:17;5.75;;;5.20;;
56319;SDS011;42226;42.382;23.748;2024-01-25T08:03:52;5.10;;;4.70;;
56319;SDS011;42226;42.382;23.748;2024-01-25T08:06:19;5.45;;;5.00;;
56319;SDS011;42226;42.382;23.748;2024-01-25T08:08:45;5.30;;;4.90;;
56319;SDS011;42226;42.382;23.748;2024-01-25T08:11:14;5.45;;;5.00;;
56319;SDS011;42226;42.382;23.748;2024-01-25T08:13:44;5.57;;;4.88;;
56319;SDS011;42226;42.382;23.748;2024-01-25T08:16:13;5.78;;;5.28;;
56319;SDS011;42226;42.382;23.748;2024-01-25T08:18:47;6.03;;;5.20;;
56319;SDS011;42226;42.382;23.748;2024-01-25T08:21:15;6.07;;;5.00;;
56319;SDS011;42226;42.382;23.748;2024-01-25T08:27:06;5.63;;;5.13;;
56319;SDS011;42226;42.382;23.748;2024-01-25T08:29:34;7.72;;;5.03;;
56319;SDS011;42226;42.382;23.748;2024-01-25T08:32:03;5.80;;;5.20;;
56319;SDS011;42226;42.382;23.748;2024-01-25T08:34:31;6.00;;;5.38;;
56319;SDS011;42226;42.382;23.748;2024-01-25T08:36:58;6.10;;;5.30;;
56319;SDS011;42226;42.382;23.748;2024-01-25T08:39:26;6.13;;;5.50;;
56319;SDS011;42226;42.382;23.748;2024-01-25T08:45:35;6.07;;;5.47;;
56319;SDS011;42226;42.382;23.748;2024-01-25T08:48:04;5.60;;;5.20;;
56319;SDS011;42226;42.382;23.748;2024-01-25T08:50:35;5.65;;;5.25;;
56319;SDS011;42226;42.382;23.748;2024-01-25T08:53:02;5.90;;;5.30;;
56319;SDS011;42226;42.382;23.748;2024-01-25T08:55:31;5.65;;;5.15;;
56319;SDS011;42226;42.382;23.748;2024-01-25T08:57:57;6.53;;;5.45;;
56319;SDS011;42226;42.382;23.748;2024-01-25T09:00:25;5.65;;;5.22;;
56319;SDS011;42226;42.382;23.748;2024-01-25T09:02:52;6.00;;;5.40;;
56319;SDS011;42226;42.382;23.748;2024-01-25T09:05:20;6.40;;;5.10;;
56319;SDS011;42226;42.382;23.748;2024-01-25T09:07:48;7.75;;;5.68;;
56319;SDS011;42226;42.382;23.748;2024-01-25T09:10:18;5.60;;;5.20;;
56319;SDS011;42226;42.382;23.748;2024-01-25T09:12:46;5.60;;;5.10;;
56319;SDS011;42226;42.382;23.748;2024-01-25T09:15:14;6.35;;;5.10;;
56319;SDS011;42226;42.382;23.748;2024-01-25T09:17:41;5.82;;;5.13;;
56319;SDS011;42226;42.382;23.748;2024-01-25T09:20:11;7.65;;;5.30;;
56319;SDS011;42226;42.382;23.748;2024-01-25T09:22:38;6.05;;;5.45;;
56319;SDS011;42226;42.382;23.748;2024-01-25T09:25:05;6.22;;;5.38;;
56319;SDS011;42226;42.382;23.748;2024-01-25T09:27:34;5.65;;;5.25;;
56319;SDS011;42226;42.382;23.748;2024-01-25T09:30:03;6.50;;;5.07;;
56319;SDS011;42226;42.382;23.748;2024-01-25T09:32:32;6.93;;;5.30;;
56319;SDS011;42226;42.382;23.748;2024-01-25T09:34:59;5.97;;;5.40;;
56319;SDS011;42226;42.382;23.748;2024-01-25T09:37:26;5.45;;;4.95;;
56319;SDS011;42226;42.382;23.748;2024-01-25T09:39:53;6.00;;;5.50;;
56319;SDS011;42226;42.382;23.748;2024-01-25T09:42:21;6.50;;;5.60;;
56319;SDS011;42226;42.382;23.748;2024-01-25T09:44:48;5.90;;;5.13;;
56319;SDS011;42226;42.382;23.748;2024-01-25T09:47:16;5.88;;;5.32;;
56319;SDS011;42226;42.382;23.748;2024-01-25T09:49:46;6.00;;;5.47;;
56319;SDS011;42226;42.382;23.748;2024-01-25T09:52:14;6.07;;;5.53;;
56319;SDS011;42226;42.382;23.748;2024-01-25T09:54:42;7.70;;;5.40;;
56319;SDS011;42226;42.382;23.748;2024-01-25T09:57:13;5.90;;;5.15;;
56319;SDS011;42226;42.382;23.748;2024-01-25T09:59:45;6.30;;;5.70;;
56319;SDS011;42226;42.382;23.748;2024-01-25T10:02:13;7.03;;;5.55;;
56319;SDS011;42226;42.382;23.748;2024-01-25T10:04:41;5.80;;;5.30;;
56319;SDS011;42226;42.382;23.748;2024-01-25T10:07:14;9.27;;;5.53;;
56319;SDS011;42226;42.382;23.748;2024-01-25T10:09:42;5.75;;;5.25;;
56319;SDS011;42226;42.382;23.748;2024-01-25T10:12:08;6.13;;;5.55;;
56319;SDS011;42226;42.382;23.748;2024-01-25T10:14:36;6.82;;;5.45;;
56319;SDS011;42226;42.382;23.748;2024-01-25T10:17:03;6.93;;;5.70;;
56319;SDS011;42226;42.382;23.748;2024-01-25T10:19:31;8.15;;;5.88;;
56319;SDS011;42226;42.382;23.748;2024-01-25T10:21:59;6.20;;;5.68;;
56319;SDS011;42226;42.382;23.748;2024-01-25T10:24:28;6.88;;;6.13;;
56319;SDS011;42226;42.382;23.748;2024-01-25T10:26:54;6.82;;;6.20;;
56319;SDS011;42226;42.382;23.748;2024-01-25T10:29:22;6.07;;;5.57;;
56319;SDS011;42226;42.382;23.748;2024-01-25T10:31:52;6.63;;;5.90;;
56319;SDS011;42226;42.382;23.748;2024-01-25T10:34:20;7.10;;;5.57;;
56319;SDS011;42226;42.382;23.748;2024-01-25T10:36:49;6.40;;;5.65;;
56319;SDS011;42226;42.382;23.748;2024-01-25T10:39:18;9.13;;;5.80;;
56319;SDS011;42226;42.382;23.748;2024-01-25T10:41:47;8.18;;;5.63;;
56319;SDS011;42226;42.382;23.748;2024-01-25T10:44:16;5.35;;;4.95;;
56319;SDS011;42226;42.382;23.748;2024-01-25T10:46:47;6.10;;;5.53;;
56319;SDS011;42226;42.382;23.748;2024-01-25T10:49:15;5.95;;;5.45;;
56319;SDS011;42226;42.382;23.748;2024-01-25T10:51:44;6.38;;;5.30;;
56319;SDS011;42226;42.382;23.748;2024-01-25T10:54:11;7.82;;;5.88;;
56319;SDS011;42226;42.382;23.748;2024-01-25T10:56:44;6.57;;;5.82;;
56319;SDS011;42226;42.382;23.748;2024-01-25T10:59:13;6.45;;;5.65;;
56319;SDS011;42226;42.382;23.748;2024-01-25T11:01:47;6.38;;;5.78;;
56319;SDS011;42226;42.382;23.748;2024-01-25T11:04:17;6.80;;;5.15;;
56319;SDS011;42226;42.382;23.748;2024-01-25T11:06:46;5.68;;;5.28;;
56319;SDS011;42226;42.382;23.748;2024-01-25T11:09:22;6.30;;;5.70;;
56319;SDS011;42226;42.382;23.748;2024-01-25T11:11:53;5.82;;;5.30;;
56319;SDS011;42226;42.382;23.748;2024-01-25T11:14:20;5.72;;;5.22;;
56319;SDS011;42226;42.382;23.748;2024-01-25T11:16:47;6.07;;;5.53;;
56319;SDS011;42226;42.382;23.748;2024-01-25T11:19:18;7.13;;;5.78;;
56319;SDS011;42226;42.382;23.748;2024-01-25T11:21:48;6.18;;;5.53;;
56319;SDS011;42226;42.382;23.748;2024-01-25T11:24:22;6.20;;;5.22;;
56319;SDS011;42226;42.382;23.748;2024-01-25T11:26:54;6.35;;;5.75;;
56319;SDS011;42226;42.382;23.748;2024-01-25T11:29:21;7.35;;;5.78;;
56319;SDS011;42226;42.382;23.748;2024-01-25T11:31:50;9.30;;;6.00;;
56319;SDS011;42226;42.382;23.748;2024-01-25T11:34:18;6.72;;;5.65;;
56319;SDS011;42226;42.382;23.748;2024-01-25T11:36:46;8.32;;;5.28;;
56319;SDS011;42226;42.382;23.748;2024-01-25T11:39:13;6.03;;;5.43;;
56319;SDS011;42226;42.382;23.748;2024-01-25T11:41:43;6.00;;;5.40;;
56319;SDS011;42226;42.382;23.748;2024-01-25T11:44:12;6.00;;;5.47;;
56319;SDS011;42226;42.382;23.748;2024-01-25T11:46:39;6.57;;;5.43;;
56319;SDS011;42226;42.382;23.748;2024-01-25T11:49:07;6.70;;;5.30;;
56319;SDS011;42226;42.382;23.748;2024-01-25T11:51:35;6.55;;;5.57;;
56319;SDS011;42226;42.382;23.748;2024-01-25T11:54:03;6.38;;;5.75;;
56319;SDS011;42226;42.382;23.748;2024-01-25T11:56:33;6.15;;;5.55;;
56319;SDS011;42226;42.382;23.748;2024-01-25T11:59:06;7.13;;;5.28;;
56319;SDS011;42226;42.382;23.748;2024-01-25T12:01:35;7.18;;;5.30;;
56319;SDS011;42226;42.382;23.748;2024-01-25T12:04:01;5.70;;;5.20;;
56319;SDS011;42226;42.382;23.748;2024-01-25T12:06:30;6.38;;;5.63;;
56319;SDS011;42226;42.382;23.748;2024-01-25T12:09:19;5.95;;;5.35;;
56319;SDS011;42226;42.382;23.748;2024-01-25T12:11:44;7.80;;;6.45;;
56319;SDS011;42226;42.382;23.748;2024-01-25T12:14:16;6.00;;;5.40;;
56319;SDS011;42226;42.382;23.748;2024-01-25T12:16:43;7.18;;;5.82;;
56319;SDS011;42226;42.382;23.748;2024-01-25T12:19:12;7.07;;;6.07;;
56319;SDS011;42226;42.382;23.748;2024-01-25T12:21:44;6.63;;;5.90;;
56319;SDS011;42226;42.382;23.748;2024-01-25T12:24:14;6.55;;;5.88;;
56319;SDS011;42226;42.382;23.748;2024-01-25T12:26:45;6.07;;;5.47;;
56319;SDS011;42226;42.382;23.748;2024-01-25T12:29:14;6.30;;;5.68;;
56319;SDS011;42226;42.382;23.748;2024-01-25T12:31:43;5.57;;;5.10;;
56319;SDS011;42226;42.382;23.748;2024-01-25T12:34:14;9.43;;;6.05;;
56319;SDS011;42226;42.382;23.748;2024-01-25T12:36:42;6.78;;;6.00;;
56319;SDS011;42226;42.382;23.748;2024-01-25T12:39:10;7.47;;;5.93;;
56319;SDS011;42226;42.382;23.748;2024-01-25T12:41:39;6.82;;;6.13;;
56319;SDS011;42226;42.382;23.748;2024-01-25T12:44:06;7.32;;;5.32;;
56319;SDS011;42226;42.382;23.748;2024-01-25T12:46:33;9.32;;;5.68;;
56319;SDS011;42226;42.382;23.748;2024-01-25T12:49:01;7.57;;;5.90;;
56319;SDS011;42226;42.382;23.748;2024-01-25T12:51:29;6.32;;;5.70;;
56319;SDS011;42226;42.382;23.748;2024-01-25T12:53:56;6.60;;;5.78;;
56319;SDS011;42226;42.382;23.748;2024-01-25T12:56:24;6.78;;;5.70;;
56319;SDS011;42226;42.382;23.748;2024-01-25T12:58:51;8.32;;;5.90;;
56319;SDS011;42226;42.382;23.748;2024-01-25T13:01:19;7.18;;;6.10;;
56319;SDS011;42226;42.382;23.748;2024-01-25T13:03:47;7.93;;;5.97;;
56319;SDS011;42226;42.382;23.748;2024-01-25T13:06:14;6.60;;;5.90;;
56319;SDS011;42226;42.382;23.748;2024-01-25T13:08:42;8.07;;;6.03;;
56319;SDS011;42226;42.382;23.748;2024-01-25T13:11:11;6.50;;;5.90;;
56319;SDS011;42226;42.382;23.748;2024-01-25T13:13:38;6.10;;;5.45;;
56319;SDS011;42226;42.382;23.748;2024-01-25T13:16:06;6.47;;;5.85;;
56319;SDS011;42226;42.382;23.748;2024-01-25T13:18:32;7.30;;;5.70;;
56319;SDS011;42226;42.382;23.748;2024-01-25T13:21:00;8.88;;;6.65;;
56319;SDS011;42226;42.382;23.748;2024-01-25T13:23:27;5.88;;;5.28;;
56319;SDS011;42226;42.382;23.748;2024-01-25T13:25:54;6.22;;;5.63;;
56319;SDS011;42226;42.382;23.748;2024-01-25T13:28:22;8.43;;;6.30;;
56319;SDS011;42226;42.382;23.748;2024-01-25T13:30:50;6.38;;;5.70;;
56319;SDS011;42226;42.382;23.748;2024-01-25T13:33:20;7.32;;;6.10;;
56319;SDS011;42226;42.382;23.748;2024-01-25T13:35:47;8.68;;;5.97;;
56319;SDS011;42226;42.382;23.748;2024-01-25T13:38:14;8.35;;;6.32;;
56319;SDS011;42226;42.382;23.748;2024-01-25T13:40:41;9.32;;;6.32;;
56319;SDS011;42226;42.382;23.748;2024-01-25T13:43:11;7.03;;;5.97;;
56319;SDS011;42226;42.382;23.748;2024-01-25T13:45:38;7.43;;;5.68;;
56319;SDS011;42226;42.382;23.748;2024-01-25T13:48:06;5.80;;;5.15;;
56319;SDS011;42226;42.382;23.748;2024-01-25T13:50:33;8.25;;;5.70;;
56319;SDS011;42226;42.382;23.748;2024-01-25T13:53:00;6.85;;;5.60;;
56319;SDS011;42226;42.382;23.748;2024-01-25T13:55:33;6.40;;;5.68;;
56319;SDS011;42226;42.382;23.748;2024-01-25T13:58:01;6.75;;;5.90;;
56319;SDS011;42226;42.382;23.748;2024-01-25T14:00:29;7.95;;;6.03;;
56319;SDS011;42226;42.382;23.748;2024-01-25T14:02:58;6.10;;;5.57;;
56319;SDS011;42226;42.382;23.748;2024-01-25T14:05:26;6.65;;;5.40;;
56319;SDS011;42226;42.382;23.748;2024-01-25T14:07:54;7.50;;;5.72;;
56319;SDS011;42226;42.382;23.748;2024-01-25T14:10:22;5.90;;;5.40;;
56319;SDS011;42226;42.382;23.748;2024-01-25T14:12:49;9.10;;;5.85;;
56319;SDS011;42226;42.382;23.748;2024-01-25T14:15:17;7.18;;;5.82;;
56319;SDS011;42226;42.382;23.748;2024-01-25T14:17:43;6.45;;;5.80;;
56319;SDS011;42226;42.382;23.748;2024-01-25T14:20:11;6.00;;;5.40;;
56319;SDS011;42226;42.382;23.748;2024-01-25T14:22:54;8.82;;;5.63;;
56319;SDS011;42226;42.382;23.748;2024-01-25T14:25:22;7.60;;;5.85;;
56319;SDS011;42226;42.382;23.748;2024-01-25T14:27:49;8.23;;;5.85;;
56319;SDS011;42226;42.382;23.748;2024-01-25T14:30:17;7.10;;;5.65;;
56319;SDS011;42226;42.382;23.748;2024-01-25T14:32:44;6.43;;;5.82;;
56319;SDS011;42226;42.382;23.748;2024-01-25T14:35:13;5.57;;;5.07;;
56319;SDS011;42226;42.382;23.748;2024-01-25T14:37:39;8.57;;;5.55;;
56319;SDS011;42226;42.382;23.748;2024-01-25T14:40:07;5.90;;;5.40;;
56319;SDS011;42226;42.382;23.748;2024-01-25T14:42:36;7.90;;;5.63;;
56319;SDS011;42226;42.382;23.748;2024-01-25T14:45:05;8.35;;;5.63;;
56319;SDS011;42226;42.382;23.748;2024-01-25T14:47:33;9.27;;;5.90;;
56319;SDS011;42226;42.382;23.748;2024-01-25T14:50:00;6.85;;;5.57;;
56319;SDS011;42226;42.382;23.748;2024-01-25T14:55:45;6.10;;;5.50;;
56319;SDS011;42226;42.382;23.748;2024-01-25T14:58:12;6.25;;;5.65;;
56319;SDS011;42226;42.382;23.748;2024-01-25T15:00:40;7.07;;;5.55;;
56319;SDS011;42226;42.382;23.748;2024-01-25T15:03:07;5.60;;;5.07;;
56319;SDS011;42226;42.382;23.748;2024-01-25T15:05:35;9.30;;;5.97;;
56319;SDS011;42226;42.382;23.748;2024-01-25T15:08:02;7.88;;;5.30;;
56319;SDS011;42226;42.382;23.748;2024-01-25T15:10:31;7.70;;;5.30;;
56319;SDS011;42226;42.382;23.748;2024-01-25T15:12:58;6.35;;;5.70;;
56319;SDS011;42226;42.382;23.748;2024-01-25T15:15:26;6.18;;;5.22;;
56319;SDS011;42226;42.382;23.748;2024-01-25T15:17:53;9.00;;;5.32;;
56319;SDS011;42226;42.382;23.748;2024-01-25T15:20:21;7.22;;;5.32;;